Time,TemperatureF,DewpointF,PressureIn,WindDirection,WindDirectionDegrees,WindSpeedMPH,WindSpeedGustMPH,Humidity,HourlyPrecipIn,Conditions,Clouds,dailyrainin,SolarRadiationWatts/m^2,SoftwareType,DateUTC
2013-04-25 00:01:00,40.0,18.0,-100.00,SW,219,10.0,12.0,40,-99.99,,,-99.99,-0.100000,,2013-04-25 06:01:00,
2013-04-25 00:11:00,40.0,18.0,-100.00,SW,223,8.0,10.0,39,-99.99,,,-99.99,0.000000,,2013-04-25 06:11:00,
2013-04-25 00:22:00,40.0,18.0,-100.00,SW,228,7.0,9.0,41,-99.99,,,-99.99,-0.200000,,2013-04-25 06:22:00,
2013-04-25 00:31:00,39.0,18.0,-100.00,SW,222,6.0,8.0,43,-99.99,,,-99.99,-0.100000,,2013-04-25 06:31:00,
2013-04-25 00:41:00,39.0,19.0,-100.00,SW,221,6.0,9.0,44,-99.99,,,-99.99,-0.100000,,2013-04-25 06:41:00,
2013-04-25 00:52:00,35.0,18.0,-100.00,South,186,2.0,3.0,49,-99.99,,,-99.99,-0.100000,,2013-04-25 06:52:00,
2013-04-25 01:01:00,32.0,19.0,-100.00,SE,141,3.0,4.0,56,-99.99,,,-99.99,-0.100000,,2013-04-25 07:01:00,
2013-04-25 01:11:00,33.0,20.0,-100.00,SW,216,4.0,5.0,58,-99.99,,,-99.99,-0.100000,,2013-04-25 07:11:00,
2013-04-25 01:21:00,32.0,20.0,-100.00,SW,221,5.0,6.0,59,-99.99,,,-99.99,-0.100000,,2013-04-25 07:21:00,
2013-04-25 01:31:00,31.0,19.0,-100.00,West,260,2.0,3.0,61,-99.99,,,-99.99,-0.100000,,2013-04-25 07:31:00,
2013-04-25 01:41:00,31.0,20.0,-100.00,WSW,238,4.0,5.0,62,-99.99,,,-99.99,-0.100000,,2013-04-25 07:41:00,
2013-04-25 01:52:00,31.0,20.0,-100.00,WSW,242,5.0,6.0,63,-99.99,,,-99.99,-0.100000,,2013-04-25 07:52:00,
2013-04-25 02:01:00,30.0,21.0,-100.00,WSW,250,5.0,6.0,67,-99.99,,,-99.99,-0.100000,,2013-04-25 08:01:00,
2013-04-25 02:11:00,30.0,21.0,-100.00,West,269,6.0,6.0,69,-99.99,,,-99.99,-0.100000,,2013-04-25 08:11:00,
2013-04-25 02:21:00,31.0,21.0,-100.00,West,273,5.0,6.0,66,-99.99,,,-99.99,-0.100000,,2013-04-25 08:21:00,
2013-04-25 02:31:00,32.0,21.0,-100.00,WSW,245,6.0,6.0,63,-99.99,,,-99.99,-0.100000,,2013-04-25 08:31:00,
2013-04-25 02:41:00,34.0,20.0,-100.00,WSW,241,5.0,6.0,56,-99.99,,,-99.99,0.000000,,2013-04-25 08:41:00,
2013-04-25 02:51:00,31.0,20.0,-100.00,WSW,255,3.0,4.0,62,-99.99,,,-99.99,-0.100000,,2013-04-25 08:51:00,
2013-04-25 03:01:00,29.0,20.0,-100.00,WSW,251,2.0,3.0,66,-99.99,,,-99.99,-0.100000,,2013-04-25 09:01:00,
2013-04-25 03:11:00,31.0,19.0,-100.00,WSW,246,2.0,3.0,62,-99.99,,,-99.99,-0.100000,,2013-04-25 09:11:00,
2013-04-25 03:21:00,29.0,18.0,-100.00,WSW,245,4.0,6.0,62,-99.99,,,-99.99,-0.100000,,2013-04-25 09:21:00,
2013-04-25 03:32:00,30.0,19.0,-100.00,WSW,248,5.0,6.0,63,-99.99,,,-99.99,-0.100000,,2013-04-25 09:32:00,
2013-04-25 03:42:00,28.0,18.0,-100.00,WSW,246,5.0,8.0,65,-99.99,,,-99.99,-0.200000,,2013-04-25 09:42:00,
2013-04-25 03:52:00,30.0,18.0,-100.00,WSW,252,6.0,9.0,61,-99.99,,,-99.99,0.000000,,2013-04-25 09:52:00,
2013-04-25 04:02:00,33.0,18.0,-100.00,WSW,239,6.0,8.0,53,-99.99,,,-99.99,-0.100000,,2013-04-25 10:02:00,
2013-04-25 04:11:00,36.0,19.0,-100.00,WSW,240,7.0,10.0,49,-99.99,,,-99.99,-0.100000,,2013-04-25 10:11:00,
2013-04-25 04:22:00,36.0,19.0,-100.00,WSW,238,8.0,12.0,48,-99.99,,,-99.99,0.000000,,2013-04-25 10:22:00,
2013-04-25 04:32:00,38.0,19.0,-100.00,WSW,237,8.0,11.0,46,-99.99,,,-99.99,0.000000,,2013-04-25 10:32:00,
2013-04-25 04:41:00,36.0,18.0,-100.00,South,189,4.0,6.0,49,-99.99,,,-99.99,-0.100000,,2013-04-25 10:41:00,
2013-04-25 04:52:00,28.0,19.0,-100.00,SSW,200,3.0,4.0,68,-99.99,,,-99.99,-0.100000,,2013-04-25 10:52:00,
2013-04-25 05:02:00,29.0,19.0,-100.00,SSW,209,4.0,4.0,65,-99.99,,,-99.99,-0.100000,,2013-04-25 11:02:00,
2013-04-25 05:11:00,28.0,19.0,-100.00,South,181,6.0,6.0,67,-99.99,,,-99.99,-0.100000,,2013-04-25 11:11:00,
2013-04-25 05:21:00,28.0,19.0,-100.00,South,180,6.0,7.0,68,-99.99,,,-99.99,0.000000,,2013-04-25 11:21:00,
2013-04-25 05:32:00,27.0,19.0,-100.00,SSW,195,4.0,6.0,70,-99.99,,,-99.99,-0.200000,,2013-04-25 11:32:00,
2013-04-25 05:42:00,28.0,19.0,-100.00,SSW,205,5.0,6.0,69,-99.99,,,-99.99,-0.100000,,2013-04-25 11:42:00,
2013-04-25 05:51:00,26.0,18.0,-100.00,SSW,206,6.0,6.0,70,-99.99,,,-99.99,-0.100000,,2013-04-25 11:51:00,
2013-04-25 06:01:00,27.0,19.0,-100.00,SSW,210,6.0,7.0,73,-99.99,,,-99.99,-0.100000,,2013-04-25 12:01:00,
2013-04-25 06:12:00,27.0,19.0,-100.00,SW,221,6.0,8.0,71,-99.99,,,-99.99,-0.100000,,2013-04-25 12:12:00,
2013-04-25 06:21:00,29.0,19.0,-100.00,SW,228,7.0,8.0,66,-99.99,,,-99.99,-0.100000,,2013-04-25 12:21:00,
2013-04-25 06:31:00,29.0,19.0,-100.00,SW,228,7.0,9.0,64,-99.99,,,-99.99,0.000000,,2013-04-25 12:31:00,
2013-04-25 06:41:00,30.0,19.0,-100.00,SW,225,8.0,11.0,62,-99.99,,,-99.99,0.500000,,2013-04-25 12:41:00,
2013-04-25 06:51:00,30.0,18.0,-100.00,SW,217,8.0,11.0,61,-99.99,,,-99.99,2.900000,,2013-04-25 12:51:00,
2013-04-25 07:02:00,27.0,18.0,-100.00,NW,304,3.0,5.0,66,-99.99,,,-99.99,11.100000,,2013-04-25 13:02:00,
2013-04-25 07:11:00,26.0,18.0,-100.00,SW,232,3.0,4.0,71,-99.99,,,-99.99,25.000000,,2013-04-25 13:11:00,
2013-04-25 07:21:00,25.0,18.0,-100.00,SW,215,4.0,6.0,71,-99.99,,,-99.99,46.500000,,2013-04-25 13:21:00,
2013-04-25 07:31:00,27.0,19.0,-100.00,WSW,246,3.0,4.0,69,-99.99,,,-99.99,73.599998,,2013-04-25 13:31:00,
2013-04-25 07:42:00,27.0,20.0,-100.00,WSW,258,4.0,5.0,74,-99.99,,,-99.99,110.099998,,2013-04-25 13:42:00,
2013-04-25 07:52:00,29.0,20.0,-100.00,West,265,4.0,4.0,70,-99.99,,,-99.99,143.800003,,2013-04-25 13:52:00,
2013-04-25 08:01:00,30.0,21.0,-100.00,WNW,285,6.0,6.0,69,-99.99,,,-99.99,141.199997,,2013-04-25 14:01:00,
2013-04-25 08:11:00,30.0,21.0,-100.00,WNW,283,3.0,4.0,68,-99.99,,,-99.99,85.900002,,2013-04-25 14:11:00,
2013-04-25 08:21:00,31.0,21.0,-100.00,NNW,328,3.0,3.0,67,-99.99,,,-99.99,126.099998,,2013-04-25 14:21:00,
2013-04-25 08:32:00,31.0,21.0,-100.00,NW,310,4.0,5.0,65,-99.99,,,-99.99,146.199997,,2013-04-25 14:32:00,
2013-04-25 08:41:00,33.0,21.0,-100.00,West,271,1.0,2.0,61,-99.99,,,-99.99,248.500000,,2013-04-25 14:41:00,
2013-04-25 08:51:00,35.0,21.0,-100.00,WSW,257,2.0,2.0,55,-99.99,,,-99.99,331.399994,,2013-04-25 14:51:00,
2013-04-25 09:01:00,37.0,21.0,-100.00,WSW,246,3.0,4.0,51,-99.99,,,-99.99,376.399994,,2013-04-25 15:01:00,
2013-04-25 09:11:00,40.0,21.0,-100.00,WSW,247,3.0,4.0,47,-99.99,,,-99.99,398.100006,,2013-04-25 15:11:00,
2013-04-25 09:21:00,41.0,21.0,-100.00,SW,223,4.0,6.0,43,-99.99,,,-99.99,386.700012,,2013-04-25 15:21:00,
2013-04-25 09:33:00,43.0,21.0,-100.00,SSW,207,4.0,5.0,41,-99.99,,,-99.99,353.799988,,2013-04-25 15:33:00,
2013-04-25 09:42:00,45.0,19.0,-100.00,SSW,204,8.0,11.0,35,-99.99,,,-99.99,374.200012,,2013-04-25 15:42:00,
2013-04-25 09:52:00,46.0,19.0,-100.00,SSW,203,8.0,10.0,34,-99.99,,,-99.99,461.700012,,2013-04-25 15:52:00,
2013-04-25 10:02:00,47.0,21.0,-100.00,SSW,193,8.0,10.0,35,-99.99,,,-99.99,552.400024,,2013-04-25 16:02:00,
2013-04-25 10:13:00,48.0,21.0,-100.00,South,184,9.0,11.0,34,-99.99,,,-99.99,591.099976,,2013-04-25 16:13:00,
2013-04-25 10:24:00,48.0,21.0,-100.00,SSE,168,9.0,11.0,34,-99.99,,,-99.99,622.799988,,2013-04-25 16:24:00,
2013-04-25 10:32:00,48.0,28.0,-100.00,SSE,154,9.0,12.0,45,-99.99,,,-99.99,646.900024,,2013-04-25 16:32:00,
2013-04-25 10:42:00,49.0,29.0,-100.00,SSE,155,8.0,10.0,46,-99.99,,,-99.99,703.099976,,2013-04-25 16:42:00,
2013-04-25 10:52:00,49.0,27.0,-100.00,SSE,152,9.0,11.0,42,-99.99,,,-99.99,714.400024,,2013-04-25 16:52:00,
2013-04-25 11:02:00,50.0,25.0,-100.00,SSE,151,10.0,12.0,38,-99.99,,,-99.99,731.700012,,2013-04-25 17:02:00,
2013-04-25 11:11:00,51.0,25.0,-100.00,SSE,147,8.0,11.0,37,-99.99,,,-99.99,759.799988,,2013-04-25 17:11:00,
2013-04-25 11:22:00,53.0,23.0,-100.00,South,171,9.0,16.0,30,-99.99,,,-99.99,773.700012,,2013-04-25 17:22:00,
2013-04-25 11:31:00,54.0,19.0,-100.00,WSW,254,10.0,15.0,24,-99.99,,,-99.99,744.900024,,2013-04-25 17:31:00,
2013-04-25 11:41:00,55.0,17.0,-100.00,WSW,237,10.0,16.0,22,-99.99,,,-99.99,840.000000,,2013-04-25 17:41:00,
2013-04-25 11:53:00,56.0,18.0,-100.00,WSW,243,10.0,15.0,22,-99.99,,,-99.99,885.000000,,2013-04-25 17:53:00,
2013-04-25 12:01:00,56.0,16.0,-100.00,WSW,251,13.0,19.0,20,-99.99,,,-99.99,933.000000,,2013-04-25 18:01:00,
2013-04-25 12:11:00,57.0,16.0,-100.00,SW,229,12.0,17.0,19,-99.99,,,-99.99,825.000000,,2013-04-25 18:11:00,
2013-04-25 12:21:00,58.0,15.0,-100.00,WSW,257,12.0,20.0,18,-99.99,,,-99.99,949.000000,,2013-04-25 18:21:00,
2013-04-25 12:31:00,58.0,14.0,-100.00,SW,228,11.0,16.0,17,-99.99,,,-99.99,950.000000,,2013-04-25 18:31:00,
2013-04-25 12:42:00,58.0,15.0,-100.00,WSW,250,13.0,18.0,17,-99.99,,,-99.99,954.000000,,2013-04-25 18:42:00,
2013-04-25 12:52:00,59.0,15.0,-100.00,WSW,255,15.0,19.0,17,-99.99,,,-99.99,981.000000,,2013-04-25 18:52:00,
2013-04-25 13:01:00,59.0,14.0,-100.00,SW,231,14.0,18.0,17,-99.99,,,-99.99,988.000000,,2013-04-25 19:01:00,
2013-04-25 13:11:00,59.0,14.0,-100.00,SW,223,12.0,16.0,16,-99.99,,,-99.99,998.000000,,2013-04-25 19:11:00,
2013-04-25 13:21:00,60.0,13.0,-100.00,SW,219,13.0,19.0,15,-99.99,,,-99.99,978.000000,,2013-04-25 19:21:00,
2013-04-25 13:31:00,60.0,12.0,-100.00,SW,222,13.0,18.0,15,-99.99,,,-99.99,916.000000,,2013-04-25 19:31:00,
2013-04-25 13:41:00,62.0,13.0,-100.00,WSW,250,12.0,20.0,14,-99.99,,,-99.99,1077.000000,,2013-04-25 19:41:00,
2013-04-25 13:52:00,61.0,12.0,-100.00,WSW,248,13.0,19.0,14,-99.99,,,-99.99,623.400024,,2013-04-25 19:52:00,
2013-04-25 14:01:00,62.0,11.0,-100.00,WSW,255,13.0,20.0,13,-99.99,,,-99.99,1014.000000,,2013-04-25 20:01:00,
2013-04-25 14:11:00,62.0,11.0,-100.00,WSW,246,15.0,22.0,13,-99.99,,,-99.99,958.000000,,2013-04-25 20:11:00,
2013-04-25 14:21:00,62.0,12.0,-100.00,WSW,244,13.0,21.0,13,-99.99,,,-99.99,877.000000,,2013-04-25 20:21:00,
2013-04-25 14:32:00,62.0,11.0,-100.00,West,263,14.0,19.0,13,-99.99,,,-99.99,785.599976,,2013-04-25 20:32:00,
2013-04-25 14:42:00,62.0,13.0,-100.00,WSW,256,17.0,23.0,14,-99.99,,,-99.99,385.399994,,2013-04-25 20:42:00,
2013-04-25 14:51:00,61.0,14.0,-100.00,WSW,244,12.0,16.0,15,-99.99,,,-99.99,711.900024,,2013-04-25 20:51:00,
2013-04-25 15:01:00,62.0,13.0,-100.00,WSW,249,13.0,21.0,14,-99.99,,,-99.99,863.000000,,2013-04-25 21:01:00,
2013-04-25 15:11:00,63.0,13.0,-100.00,SW,222,13.0,19.0,13,-99.99,,,-99.99,984.000000,,2013-04-25 21:11:00,
2013-04-25 15:21:00,64.0,13.0,-100.00,WSW,254,17.0,22.0,13,-99.99,,,-99.99,940.000000,,2013-04-25 21:21:00,
2013-04-25 15:32:00,63.0,13.0,-100.00,WSW,237,18.0,26.0,14,-99.99,,,-99.99,887.000000,,2013-04-25 21:32:00,
2013-04-25 15:42:00,64.0,14.0,-100.00,WSW,241,15.0,21.0,14,-99.99,,,-99.99,771.200012,,2013-04-25 21:42:00,
2013-04-25 15:52:00,63.0,14.0,-100.00,WSW,245,14.0,20.0,14,-99.99,,,-99.99,853.000000,,2013-04-25 21:52:00,
2013-04-25 16:02:00,64.0,11.0,-100.00,West,259,20.0,27.0,12,-99.99,,,-99.99,830.000000,,2013-04-25 22:02:00,
2013-04-25 16:12:00,64.0,13.0,-100.00,WSW,252,17.0,25.0,13,-99.99,,,-99.99,801.000000,,2013-04-25 22:12:00,
2013-04-25 16:22:00,64.0,11.0,-100.00,WSW,257,15.0,22.0,12,-99.99,,,-99.99,724.500000,,2013-04-25 22:22:00,
2013-04-25 16:32:00,64.0,10.0,-100.00,West,261,15.0,23.0,11,-99.99,,,-99.99,669.200012,,2013-04-25 22:32:00,
2013-04-25 16:42:00,65.0,11.0,-100.00,West,261,21.0,27.0,12,-99.99,,,-99.99,727.099976,,2013-04-25 22:42:00,
2013-04-25 16:52:00,65.0,12.0,-100.00,West,266,23.0,28.0,12,-99.99,,,-99.99,696.200012,,2013-04-25 22:52:00,
2013-04-25 17:02:00,64.0,11.0,-100.00,West,259,18.0,24.0,12,-99.99,,,-99.99,661.200012,,2013-04-25 23:02:00,
2013-04-25 17:11:00,64.0,11.0,-100.00,WSW,248,15.0,22.0,12,-99.99,,,-99.99,637.599976,,2013-04-25 23:11:00,
2013-04-25 17:21:00,64.0,10.0,-100.00,West,263,15.0,22.0,11,-99.99,,,-99.99,598.200012,,2013-04-25 23:21:00,
2013-04-25 17:32:00,64.0,12.0,-100.00,WSW,240,14.0,20.0,12,-99.99,,,-99.99,568.000000,,2013-04-25 23:32:00,
2013-04-25 17:41:00,65.0,9.0,-100.00,West,261,18.0,25.0,11,-99.99,,,-99.99,537.200012,,2013-04-25 23:41:00,
2013-04-25 17:52:00,64.0,9.0,-100.00,West,260,16.0,22.0,11,-99.99,,,-99.99,499.700012,,2013-04-25 23:52:00,
2013-04-25 18:01:00,64.0,10.0,-100.00,WSW,256,13.0,20.0,11,-99.99,,,-99.99,469.700012,,2013-04-26 00:01:00,
2013-04-25 18:11:00,64.0,12.0,-100.00,West,261,19.0,25.0,12,-99.99,,,-99.99,434.899994,,2013-04-26 00:11:00,
2013-04-25 18:21:00,64.0,13.0,-100.00,WSW,249,15.0,20.0,13,-99.99,,,-99.99,400.899994,,2013-04-26 00:21:00,
2013-04-25 18:31:00,64.0,13.0,-100.00,West,263,15.0,25.0,13,-99.99,,,-99.99,364.700012,,2013-04-26 00:31:00,
2013-04-25 18:41:00,64.0,13.0,-100.00,WSW,245,18.0,24.0,13,-99.99,,,-99.99,329.700012,,2013-04-26 00:41:00,
2013-04-25 18:51:00,63.0,13.0,-100.00,WSW,250,16.0,23.0,13,-99.99,,,-99.99,294.899994,,2013-04-26 00:51:00,
2013-04-25 19:01:00,63.0,13.0,-100.00,West,262,19.0,24.0,14,-99.99,,,-99.99,260.299988,,2013-04-26 01:01:00,
2013-04-25 19:11:00,63.0,12.0,-100.00,WSW,248,17.0,24.0,13,-99.99,,,-99.99,226.199997,,2013-04-26 01:11:00,
2013-04-25 19:21:00,62.0,13.0,-100.00,WSW,251,16.0,22.0,14,-99.99,,,-99.99,193.600006,,2013-04-26 01:21:00,
2013-04-25 19:31:00,62.0,15.0,-100.00,WSW,253,14.0,20.0,15,-99.99,,,-99.99,163.600006,,2013-04-26 01:31:00,
2013-04-25 19:41:00,61.0,16.0,-100.00,WSW,252,14.0,21.0,17,-99.99,,,-99.99,139.300003,,2013-04-26 01:41:00,
2013-04-25 19:52:00,61.0,14.0,-100.00,WSW,250,15.0,21.0,15,-99.99,,,-99.99,110.800003,,2013-04-26 01:52:00,
2013-04-25 20:01:00,60.0,15.0,-100.00,WSW,244,14.0,18.0,16,-99.99,,,-99.99,80.500000,,2013-04-26 02:01:00,
2013-04-25 20:11:00,60.0,16.0,-100.00,WSW,243,11.0,16.0,17,-99.99,,,-99.99,49.799999,,2013-04-26 02:11:00,
2013-04-25 20:21:00,59.0,17.0,-100.00,WSW,245,11.0,15.0,18,-99.99,,,-99.99,28.200001,,2013-04-26 02:21:00,
2013-04-25 20:31:00,58.0,17.0,-100.00,WSW,237,11.0,16.0,19,-99.99,,,-99.99,14.000000,,2013-04-26 02:31:00,
2013-04-25 20:41:00,57.0,16.0,-100.00,WSW,237,10.0,15.0,19,-99.99,,,-99.99,5.700000,,2013-04-26 02:41:00,
2013-04-25 20:51:00,57.0,17.0,-100.00,SW,233,9.0,14.0,20,-99.99,,,-99.99,1.700000,,2013-04-26 02:51:00,
2013-04-25 21:01:00,56.0,17.0,-100.00,SW,224,9.0,13.0,21,-99.99,,,-99.99,0.200000,,2013-04-26 03:01:00,
2013-04-25 21:11:00,55.0,17.0,-100.00,SW,228,11.0,16.0,21,-99.99,,,-99.99,-0.100000,,2013-04-26 03:11:00,
2013-04-25 21:21:00,56.0,16.0,-100.00,SW,232,11.0,15.0,20,-99.99,,,-99.99,-0.100000,,2013-04-26 03:21:00,
2013-04-25 21:32:00,55.0,17.0,-100.00,SSW,209,9.0,14.0,21,-99.99,,,-99.99,0.000000,,2013-04-26 03:32:00,
2013-04-25 21:43:00,50.0,19.0,-100.00,SSW,199,11.0,13.0,29,-99.99,,,-99.99,-0.100000,,2013-04-26 03:43:00,
2013-04-25 21:52:00,50.0,19.0,-100.00,SSW,203,11.0,13.0,28,-99.99,,,-99.99,-0.100000,,2013-04-26 03:52:00,
2013-04-25 22:02:00,50.0,19.0,-100.00,SSW,204,11.0,13.0,28,-99.99,,,-99.99,-0.100000,,2013-04-26 04:02:00,
2013-04-25 22:12:00,51.0,19.0,-100.00,SSW,207,10.0,14.0,28,-99.99,,,-99.99,-0.100000,,2013-04-26 04:12:00,
2013-04-25 22:22:00,50.0,19.0,-100.00,SSW,205,11.0,14.0,30,-99.99,,,-99.99,-0.100000,,2013-04-26 04:22:00,
2013-04-25 22:32:00,50.0,19.0,-100.00,SSW,202,12.0,15.0,30,-99.99,,,-99.99,-0.100000,,2013-04-26 04:32:00,
2013-04-25 22:42:00,48.0,19.0,-100.00,SSW,201,13.0,15.0,32,-99.99,,,-99.99,0.000000,,2013-04-26 04:42:00,
2013-04-25 22:52:00,49.0,19.0,-100.00,SSW,211,10.0,13.0,30,-99.99,,,-99.99,-0.200000,,2013-04-26 04:52:00,
2013-04-25 23:02:00,49.0,19.0,-100.00,SSW,211,11.0,14.0,29,-99.99,,,-99.99,-0.200000,,2013-04-26 05:02:00,
2013-04-25 23:12:00,49.0,19.0,-100.00,SSW,209,12.0,16.0,29,-99.99,,,-99.99,-0.100000,,2013-04-26 05:12:00,
2013-04-25 23:22:00,49.0,19.0,-100.00,SSW,212,13.0,18.0,29,-99.99,,,-99.99,-0.100000,,2013-04-26 05:22:00,
2013-04-25 23:32:00,49.0,19.0,-100.00,SSW,209,12.0,16.0,29,-99.99,,,-99.99,-0.100000,,2013-04-26 05:32:00,
2013-04-25 23:41:00,50.0,19.0,-100.00,SSW,206,15.0,19.0,29,-99.99,,,-99.99,-0.100000,,2013-04-26 05:41:00,
2013-04-25 23:52:00,50.0,19.0,-100.00,SSW,210,13.0,18.0,29,-99.99,,,-99.99,-0.100000,,2013-04-26 05:52:00,